Terminal Aerodrome Forecast
Issued by NWS

Home | Current Version | Previous Version | Text Only | Print | Product List | Glossary On
Versions: 1 2 3 4 5 6 7 8 9 10 11 12 13 14 15 16 17 18 19 20 21 22 23 24 25 26 27 28
000
FTUS42 KGSP 191120
TAFAND
TAF
KAND 191120Z 1912/2012 13008KT 3SM SHRA BR OVC003
      TEMPO 1912/1916 1 1/2SM SHRA BR OVC002
     FM191600 16009KT 1 1/2SM SHRA BR VCTS OVC003CB
     FM192100 20011G19KT 4SM SHRA OVC008 PROB30 1921/2002 2SM TSRA
      OVC008CB
     FM200200 22008KT P6SM BKN015
     FM200600 22007KT P6SM BKN003=

USA.gov is the U.S. government's official web portal to all federal, state and local government web resources and services.